Time;durP1;ratioP1;P1;durP2;ratioP2;P2;SDS_P1;SDS_P2;PMS_P1;PMS_P2;Temp;Humidity;BMP_temperature;BMP_pressure;BME280_temperature;BME280_humidity;BME280_pressure;Samples;Min_cycle;Max_cycle;Signal;HPM_P1;HPM_P2
2021/07/30 00:00:31;;;;;;;6.03;5.43;;;14.90;99.90;;;;;;5032006;28;21250;-88
2021/07/30 00:03:00;;;;;;;6.97;6.37;;;14.90;99.90;;;;;;5031636;28;20681;-88
2021/07/30 00:05:27;;;;;;;6.73;6.13;;;15.00;99.90;;;;;;5032048;28;20611;-87
2021/07/30 00:07:54;;;;;;;6.17;5.60;;;15.00;99.90;;;;;;5026482;28;20650;-88
2021/07/30 00:10:21;;;;;;;8.43;6.73;;;15.00;99.90;;;;;;5032156;28;20995;-87
2021/07/30 00:12:55;;;;;;;7.90;5.07;;;14.90;99.90;;;;;;5031538;28;21196;-87
2021/07/30 00:15:22;;;;;;;5.83;5.33;;;15.00;99.90;;;;;;5031929;28;20626;-87
2021/07/30 00:17:49;;;;;;;7.13;6.30;;;15.00;99.90;;;;;;5031743;28;20669;-87
2021/07/30 00:20:18;;;;;;;7.47;6.80;;;15.00;99.90;;;;;;5031672;28;20618;-86
2021/07/30 00:22:45;;;;;;;8.80;6.83;;;14.90;99.90;;;;;;5030500;28;20651;-86
2021/07/30 00:25:13;;;;;;;7.27;6.27;;;14.90;99.90;;;;;;5031406;28;21008;-87
2021/07/30 00:27:40;;;;;;;7.77;6.30;;;14.90;99.90;;;;;;5026457;28;21253;-87
2021/07/30 00:30:08;;;;;;;8.37;7.57;;;15.00;99.90;;;;;;5031053;28;20709;-87
2021/07/30 00:32:35;;;;;;;6.10;5.43;;;14.90;99.90;;;;;;5031069;28;20611;-87
2021/07/30 00:35:01;;;;;;;7.03;6.33;;;14.90;99.90;;;;;;5031357;28;20623;-87
2021/07/30 00:37:30;;;;;;;8.07;5.80;;;14.90;99.90;;;;;;5031182;28;20611;-87
2021/07/30 00:39:57;;;;;;;7.33;6.20;;;14.90;99.90;;;;;;5030913;28;20631;-87
2021/07/30 00:42:24;;;;;;;6.10;5.50;;;14.90;99.90;;;;;;5030699;28;20639;-87
2021/07/30 00:44:51;;;;;;;8.03;7.23;;;14.90;99.90;;;;;;5031469;28;20639;-87
2021/07/30 00:47:18;;;;;;;6.70;5.70;;;14.90;99.90;;;;;;5031424;28;20619;-87
2021/07/30 00:49:46;;;;;;;5.90;5.40;;;14.90;99.90;;;;;;5025935;28;20708;-88
2021/07/30 00:52:13;;;;;;;7.20;6.23;;;14.70;99.90;;;;;;5030560;28;20599;-87
2021/07/30 00:54:41;;;;;;;12.03;6.27;;;14.70;99.90;;;;;;5031145;28;20938;-87
2021/07/30 00:57:08;;;;;;;6.07;5.57;;;14.70;99.90;;;;;;5031051;28;21245;-88
2021/07/30 00:59:35;;;;;;;7.07;5.67;;;14.70;99.90;;;;;;5031450;28;20603;-88
2021/07/30 01:02:02;;;;;;;5.90;5.40;;;14.80;99.90;;;;;;5030284;28;20643;-88
2021/07/30 01:04:31;;;;;;;9.30;5.33;;;14.80;99.90;;;;;;5024346;28;20662;-88
2021/07/30 01:06:59;;;;;;;6.53;5.70;;;14.80;99.90;;;;;;5011248;28;20623;-87
2021/07/30 01:09:28;;;;;;;6.60;6.00;;;14.80;99.90;;;;;;5011232;28;20653;-88
2021/07/30 01:11:59;;;;;;;7.43;6.53;;;14.70;99.90;;;;;;5010743;28;20654;-88
2021/07/30 01:14:28;;;;;;;5.63;5.13;;;14.60;99.90;;;;;;5011219;28;20642;-87
2021/07/30 01:16:57;;;;;;;5.60;5.10;;;14.60;99.90;;;;;;5011064;28;20615;-87
2021/07/30 01:19:25;;;;;;;6.37;5.77;;;14.60;99.90;;;;;;5005903;28;20682;-88
2021/07/30 01:21:55;;;;;;;7.80;6.60;;;14.60;99.90;;;;;;5025370;28;21286;-88
2021/07/30 01:24:26;;;;;;;6.17;5.50;;;14.70;99.90;;;;;;5030148;28;20631;-88
2021/07/30 01:26:54;;;;;;;7.77;5.83;;;14.50;99.90;;;;;;5030857;28;20607;-88
2021/07/30 01:29:24;;;;;;;5.00;4.53;;;14.50;99.90;;;;;;5041207;28;20630;-87
2021/07/30 01:31:53;;;;;;;6.93;5.53;;;14.50;99.90;;;;;;5050225;28;20621;-88
2021/07/30 01:34:25;;;;;;;6.30;5.70;;;14.40;99.90;;;;;;5045738;28;20708;-87
2021/07/30 01:36:57;;;;;;;5.53;5.03;;;14.40;99.90;;;;;;5050591;28;20607;-88
2021/07/30 01:39:28;;;;;;;5.23;4.80;;;14.50;99.90;;;;;;5050693;28;21174;-87
2021/07/30 01:42:04;;;;;;;5.70;5.20;;;14.40;99.90;;;;;;5049811;28;20653;-88
2021/07/30 01:44:32;;;;;;;6.20;5.67;;;14.40;99.90;;;;;;5050769;28;20713;-88
2021/07/30 01:47:00;;;;;;;6.60;5.70;;;14.50;99.90;;;;;;5050396;28;20621;-87
2021/07/30 01:49:28;;;;;;;4.90;4.50;;;14.40;99.90;;;;;;5045688;28;20641;-88
2021/07/30 01:51:55;;;;;;;6.00;5.30;;;14.40;99.90;;;;;;5050321;28;20606;-88
2021/07/30 01:54:27;;;;;;;6.37;5.40;;;14.40;99.90;;;;;;5031300;28;20994;-88
2021/07/30 01:56:56;;;;;;;4.70;4.30;;;14.50;99.90;;;;;;5025000;28;20639;-87
2021/07/30 01:59:26;;;;;;;6.07;5.30;;;14.50;99.90;;;;;;5025232;28;20681;-88
2021/07/30 02:01:55;;;;;;;5.70;5.10;;;14.60;99.90;;;;;;5030199;28;20757;-89
2021/07/30 02:04:23;;;;;;;5.43;4.50;;;14.60;99.90;;;;;;5025310;28;21121;-88
2021/07/30 02:06:52;;;;;;;5.43;4.93;;;14.60;99.90;;;;;;5030657;28;20642;-88
2021/07/30 02:09:20;;;;;;;5.63;5.13;;;14.60;99.90;;;;;;5030562;28;20659;-88
2021/07/30 02:11:53;;;;;;;5.50;5.00;;;14.50;99.90;;;;;;5029840;28;20630;-88
2021/07/30 02:14:24;;;;;;;5.20;4.80;;;14.40;99.90;;;;;;5030427;28;20658;-88
2021/07/30 02:16:54;;;;;;;9.93;6.60;;;14.30;99.90;;;;;;5032513;28;20618;-88
2021/07/30 02:19:24;;;;;;;5.03;4.63;;;14.20;99.90;;;;;;5034055;28;20607;-88
2021/07/30 02:21:55;;;;;;;6.00;4.93;;;14.20;99.90;;;;;;5028892;28;20651;-87
2021/07/30 02:24:24;;;;;;;6.43;5.70;;;14.20;99.90;;;;;;5033153;28;20642;-87
2021/07/30 02:27:10;;;;;;;5.70;5.20;;;14.10;99.90;;;;;;5033627;28;20724;-87
2021/07/30 02:29:39;;;;;;;7.53;5.53;;;14.20;99.90;;;;;;5046780;28;20674;-88
2021/07/30 02:32:08;;;;;;;5.93;5.33;;;14.10;99.90;;;;;;5053154;28;20622;-89
2021/07/30 02:34:38;;;;;;;5.33;4.83;;;14.20;99.90;;;;;;5033837;28;21174;-89
2021/07/30 02:37:08;;;;;;;6.57;5.97;;;14.10;99.90;;;;;;5030359;28;20790;-89
2021/07/30 02:39:37;;;;;;;4.77;4.37;;;14.00;99.90;;;;;;5032801;28;20595;-89
2021/07/30 02:42:05;;;;;;;5.33;4.83;;;14.00;99.90;;;;;;5033376;28;20665;-89
2021/07/30 02:44:34;;;;;;;5.13;4.63;;;13.90;99.90;;;;;;5033585;28;20614;-90
2021/07/30 02:47:01;;;;;;;4.90;4.33;;;13.90;99.90;;;;;;5033725;28;20634;-89
2021/07/30 02:49:28;;;;;;;5.80;5.30;;;14.00;99.90;;;;;;5033490;28;20618;-89
2021/07/30 02:51:55;;;;;;;5.53;5.03;;;13.90;99.90;;;;;;5033192;28;20624;-89
2021/07/30 02:54:22;;;;;;;5.60;5.10;;;13.90;99.90;;;;;;5027883;28;21081;-89
2021/07/30 02:56:49;;;;;;;8.77;5.73;;;13.90;99.90;;;;;;5033419;28;20725;-89
2021/07/30 02:59:16;;;;;;;5.87;5.27;;;13.90;99.90;;;;;;5033048;28;20660;-88
2021/07/30 03:01:44;;;;;;;5.63;5.10;;;13.80;99.90;;;;;;5033287;28;20724;-90
2021/07/30 03:04:12;;;;;;;6.53;5.53;;;13.70;99.90;;;;;;5033407;28;20721;-89
2021/07/30 03:06:40;;;;;;;7.63;5.70;;;13.70;99.90;;;;;;5034076;28;20634;-89
2021/07/30 03:09:07;;;;;;;6.43;5.83;;;13.60;99.90;;;;;;5027996;28;20683;-88
2021/07/30 03:11:34;;;;;;;6.23;5.63;;;13.60;99.90;;;;;;5033000;28;21246;-90
2021/07/30 03:14:01;;;;;;;6.60;6.00;;;13.70;99.90;;;;;;5033712;28;20607;-89
2021/07/30 03:16:27;;;;;;;9.90;6.93;;;13.70;99.90;;;;;;5033440;28;20993;-89
2021/07/30 03:18:56;;;;;;;6.87;6.27;;;13.70;99.90;;;;;;5033450;28;20610;-90
2021/07/30 03:21:23;;;;;;;7.70;6.23;;;13.70;99.90;;;;;;5033186;28;20637;-90
2021/07/30 03:23:50;;;;;;;7.70;5.70;;;13.60;99.90;;;;;;5028677;28;20652;-90
2021/07/30 03:26:17;;;;;;;6.60;5.60;;;13.60;99.90;;;;;;5032008;28;21206;-90
2021/07/30 03:28:44;;;;;;;6.83;6.23;;;13.60;99.90;;;;;;5032579;28;20643;-89
2021/07/30 03:31:11;;;;;;;7.60;5.83;;;13.60;99.90;;;;;;5032870;28;20620;-88
2021/07/30 03:33:38;;;;;;;7.13;5.60;;;13.60;99.90;;;;;;5033326;28;20609;-89
2021/07/30 03:36:07;;;;;;;6.70;6.10;;;13.50;99.90;;;;;;5032808;28;20633;-89
2021/07/30 03:38:34;;;;;;;5.83;5.33;;;13.60;99.90;;;;;;5029723;28;20734;-88
2021/07/30 03:41:03;;;;;;;6.63;5.87;;;13.60;99.90;;;;;;5030511;28;20645;-89
2021/07/30 03:43:30;;;;;;;11.00;6.43;;;13.70;99.90;;;;;;5032263;28;20662;-89
2021/07/30 03:45:57;;;;;;;6.43;5.90;;;13.60;99.90;;;;;;5032493;28;20629;-89
2021/07/30 03:48:24;;;;;;;5.50;4.87;;;13.60;99.90;;;;;;5032359;28;20624;-88
2021/07/30 03:50:51;;;;;;;6.93;5.63;;;13.60;99.90;;;;;;5032263;28;20609;-88
2021/07/30 03:53:22;;;;;;;6.10;5.40;;;13.60;99.90;;;;;;5030277;28;20631;-88
2021/07/30 03:55:49;;;;;;;8.57;5.87;;;13.50;99.90;;;;;;5029823;28;20633;-89
2021/07/30 03:58:16;;;;;;;5.90;5.20;;;13.50;99.90;;;;;;5032656;28;20622;-89
2021/07/30 04:00:43;;;;;;;6.47;5.70;;;13.40;99.90;;;;;;5032405;28;20651;-89
2021/07/30 04:03:10;;;;;;;6.17;4.47;;;13.40;99.90;;;;;;5031966;28;21138;-89
2021/07/30 04:05:37;;;;;;;4.97;4.47;;;13.40;99.90;;;;;;5031743;28;20622;-89
2021/07/30 04:08:05;;;;;;;6.03;5.20;;;13.50;99.90;;;;;;5031694;28;20617;-88
2021/07/30 04:10:34;;;;;;;5.37;4.87;;;13.50;99.90;;;;;;5026983;28;20637;-88
2021/07/30 04:13:01;;;;;;;8.67;5.80;;;13.50;99.90;;;;;;5031928;28;21105;-88
2021/07/30 04:15:28;;;;;;;7.67;5.77;;;13.60;99.90;;;;;;5031843;28;20614;-88
2021/07/30 04:17:55;;;;;;;6.73;5.83;;;13.60;99.90;;;;;;5032058;28;21038;-89
2021/07/30 04:20:22;;;;;;;6.40;5.80;;;13.70;99.90;;;;;;5032582;28;20655;-89
2021/07/30 04:22:49;;;;;;;6.63;6.03;;;13.70;99.90;;;;;;5030970;28;20892;-88
2021/07/30 04:25:16;;;;;;;10.10;6.00;;;13.80;99.90;;;;;;5026435;28;21279;-88
2021/07/30 04:27:44;;;;;;;6.13;5.53;;;13.90;99.90;;;;;;5031623;28;20627;-87
2021/07/30 04:30:12;;;;;;;6.90;5.70;;;14.00;99.90;;;;;;5048467;28;20644;-88
2021/07/30 04:32:39;;;;;;;9.00;6.60;;;14.00;99.90;;;;;;5051180;28;21112;-88
2021/07/30 04:35:06;;;;;;;10.47;6.60;;;14.00;99.90;;;;;;5051095;28;20629;-88
2021/07/30 04:37:33;;;;;;;6.70;6.00;;;14.00;99.90;;;;;;5052205;28;20979;-88
2021/07/30 04:40:00;;;;;;;6.73;5.17;;;14.10;99.90;;;;;;5050551;28;20674;-89
2021/07/30 04:42:28;;;;;;;6.37;5.87;;;14.10;99.90;;;;;;5049208;28;20660;-89
2021/07/30 04:44:57;;;;;;;7.43;6.70;;;14.10;99.90;;;;;;5048156;28;20745;-87
2021/07/30 04:47:24;;;;;;;7.10;6.43;;;14.10;99.90;;;;;;5051171;28;20621;-88
2021/07/30 04:49:51;;;;;;;8.50;6.17;;;14.20;99.90;;;;;;5050858;28;20984;-88
2021/07/30 04:52:18;;;;;;;8.73;6.60;;;14.30;99.90;;;;;;5050858;28;20610;-88
2021/07/30 04:54:45;;;;;;;7.03;6.33;;;14.30;99.90;;;;;;5051025;28;20608;-89
2021/07/30 04:57:12;;;;;;;9.27;7.07;;;14.30;99.90;;;;;;5051023;28;21151;-89
2021/07/30 04:59:39;;;;;;;6.97;6.30;;;14.40;99.90;;;;;;5051474;28;20617;-88
2021/07/30 05:02:09;;;;;;;7.53;6.67;;;14.40;99.90;;;;;;5050332;28;20633;-90
2021/07/30 05:04:36;;;;;;;7.70;7.07;;;14.50;99.90;;;;;;5051540;28;20609;-89
2021/07/30 05:07:03;;;;;;;6.37;5.50;;;14.50;99.90;;;;;;5044590;28;20622;-88
2021/07/30 05:09:30;;;;;;;9.97;6.13;;;14.60;99.90;;;;;;5031087;28;20667;-88
2021/07/30 05:11:57;;;;;;;7.30;6.27;;;14.70;99.90;;;;;;5030780;28;20627;-88
2021/07/30 05:14:25;;;;;;;7.20;6.50;;;14.70;99.90;;;;;;5030808;28;20603;-88
2021/07/30 05:16:52;;;;;;;9.53;7.20;;;14.80;99.90;;;;;;5030637;28;20622;-88
2021/07/30 05:19:20;;;;;;;9.57;7.00;;;15.00;99.90;;;;;;5030992;28;20611;-88
2021/07/30 05:21:47;;;;;;;8.47;7.30;;;15.10;99.90;;;;;;5030500;28;20686;-88
2021/07/30 05:24:14;;;;;;;8.17;7.10;;;15.20;99.90;;;;;;5030027;28;20638;-88
2021/07/30 05:26:41;;;;;;;7.40;6.70;;;15.30;99.90;;;;;;5030784;28;21132;-88
2021/07/30 05:29:09;;;;;;;8.67;7.77;;;15.20;99.90;;;;;;5030354;28;20612;-88
2021/07/30 05:31:36;;;;;;;9.37;8.00;;;15.30;99.90;;;;;;5024856;28;20646;-88
2021/07/30 05:34:03;;;;;;;12.47;8.10;;;15.30;99.90;;;;;;5029399;28;20659;-88
2021/07/30 05:36:33;;;;;;;7.40;6.70;;;15.30;99.90;;;;;;5030642;28;20662;-89
2021/07/30 05:39:00;;;;;;;10.30;7.57;;;15.40;99.90;;;;;;5029792;28;20615;-88
2021/07/30 05:41:29;;;;;;;8.33;7.20;;;15.50;99.90;;;;;;5029855;28;20638;-88
2021/07/30 05:43:56;;;;;;;8.17;7.37;;;15.60;99.90;;;;;;5030516;28;21015;-89
2021/07/30 05:46:23;;;;;;;14.33;8.20;;;15.70;99.90;;;;;;5030992;28;20991;-88
2021/07/30 05:48:59;;;;;;;10.97;8.17;;;15.80;99.90;;;;;;5031563;28;20623;-88
2021/07/30 05:51:26;;;;;;;7.57;6.23;;;15.90;99.90;;;;;;5034648;28;20645;-89
2021/07/30 05:53:54;;;;;;;8.70;7.80;;;16.00;99.90;;;;;;5035038;28;20627;-89
2021/07/30 05:56:23;;;;;;;10.47;6.87;;;16.00;99.90;;;;;;5034518;28;20618;-89
2021/07/30 05:58:50;;;;;;;7.60;6.80;;;16.10;99.90;;;;;;5034802;28;20627;-89
2021/07/30 06:01:17;;;;;;;7.63;6.83;;;16.20;99.90;;;;;;5034491;28;20641;-88
2021/07/30 06:03:44;;;;;;;7.90;6.83;;;16.30;99.90;;;;;;5034738;28;20674;-89
2021/07/30 06:06:11;;;;;;;6.53;5.93;;;16.40;99.90;;;;;;5034583;28;21245;-88
2021/07/30 06:08:38;;;;;;;11.17;6.57;;;16.50;99.90;;;;;;5035031;28;20647;-89
2021/07/30 06:11:09;;;;;;;7.00;6.43;;;16.60;99.90;;;;;;5034123;28;20674;-89
2021/07/30 06:13:36;;;;;;;6.50;5.83;;;16.70;99.90;;;;;;5034727;28;20726;-87
2021/07/30 06:16:03;;;;;;;5.90;5.40;;;16.90;99.90;;;;;;5034667;28;20619;-89
2021/07/30 06:18:30;;;;;;;7.37;6.67;;;16.90;99.90;;;;;;5034437;28;20672;-89
2021/07/30 06:20:57;;;;;;;5.83;5.33;;;16.90;99.90;;;;;;5034438;28;20674;-88
2021/07/30 06:23:32;;;;;;;6.07;5.43;;;17.10;99.50;;;;;;5034396;28;20758;-90
2021/07/30 06:25:59;;;;;;;5.93;5.27;;;17.20;99.40;;;;;;5034784;28;20614;-89
2021/07/30 06:28:28;;;;;;;7.23;6.53;;;17.30;99.40;;;;;;5037453;28;20631;-90
2021/07/30 06:30:55;;;;;;;6.13;5.47;;;17.30;99.40;;;;;;5054297;28;20625;-89
2021/07/30 06:33:28;;;;;;;5.87;5.37;;;17.40;99.30;;;;;;5053968;28;20602;-90
2021/07/30 06:35:55;;;;;;;6.90;6.30;;;17.50;99.20;;;;;;5053783;28;20616;-89
2021/07/30 06:38:23;;;;;;;7.27;6.67;;;17.60;99.00;;;;;;5055616;28;20629;-88
2021/07/30 06:40:53;;;;;;;6.47;5.90;;;17.70;98.80;;;;;;5055613;28;21240;-90
2021/07/30 06:43:20;;;;;;;7.23;6.53;;;17.70;99.30;;;;;;5055517;28;20654;-89
2021/07/30 06:45:49;;;;;;;6.93;6.23;;;17.80;99.00;;;;;;5054654;28;20621;-90
2021/07/30 06:48:16;;;;;;;6.33;5.73;;;17.90;99.10;;;;;;5053772;28;20724;-90
2021/07/30 06:50:45;;;;;;;6.70;6.10;;;18.00;99.10;;;;;;5053737;28;20779;-89
2021/07/30 06:53:14;;;;;;;5.73;5.23;;;18.00;98.60;;;;;;5054408;28;20631;-90
2021/07/30 06:55:43;;;;;;;6.60;5.73;;;18.20;98.60;;;;;;5054960;28;20716;-89
2021/07/30 06:58:10;;;;;;;6.70;5.70;;;18.30;98.50;;;;;;5054499;28;20645;-90
2021/07/30 07:00:37;;;;;;;6.77;5.30;;;18.50;98.40;;;;;;5054195;28;20621;-91
2021/07/30 07:03:06;;;;;;;6.43;5.13;;;18.50;97.90;;;;;;5052938;28;20671;-90
2021/07/30 07:05:34;;;;;;;8.67;6.50;;;18.70;98.10;;;;;;5053200;28;21185;-90
2021/07/30 07:08:05;;;;;;;8.70;5.50;;;18.90;97.40;;;;;;5033034;28;21199;-91
2021/07/30 07:10:36;;;;;;;9.60;5.07;;;18.90;97.10;;;;;;5033898;28;20743;-91
2021/07/30 07:13:09;;;;;;;5.93;5.43;;;19.00;98.00;;;;;;5033088;28;20619;-91
2021/07/30 07:15:38;;;;;;;8.27;5.40;;;19.10;97.50;;;;;;5033794;28;20749;-91
2021/07/30 07:18:10;;;;;;;7.67;6.03;;;19.30;97.70;;;;;;5033353;28;21420;-90
2021/07/30 07:20:46;;;;;;;6.60;5.80;;;19.50;97.40;;;;;;5033297;28;20682;-90
2021/07/30 07:23:15;;;;;;;7.10;5.33;;;19.60;96.90;;;;;;5032716;28;20625;-90
2021/07/30 07:25:42;;;;;;;9.43;6.40;;;19.50;96.70;;;;;;5033109;28;20626;-91
2021/07/30 07:28:09;;;;;;;6.20;5.50;;;19.60;96.10;;;;;;5032924;28;20635;-88
2021/07/30 07:30:37;;;;;;;6.50;5.50;;;19.70;96.50;;;;;;5053140;28;20594;-89
2021/07/30 07:33:04;;;;;;;6.13;5.63;;;19.70;96.20;;;;;;5052843;28;20617;-91
2021/07/30 07:35:35;;;;;;;7.20;5.43;;;19.80;95.60;;;;;;5038072;28;20692;-88
2021/07/30 07:38:05;;;;;;;5.97;5.37;;;19.90;96.00;;;;;;5041340;28;20661;-90
2021/07/30 07:40:32;;;;;;;5.57;5.07;;;20.00;94.70;;;;;;5039867;28;20635;-89
2021/07/30 07:43:02;;;;;;;6.93;4.93;;;20.10;94.10;;;;;;5048636;28;20618;-90
2021/07/30 07:45:30;;;;;;;5.70;5.20;;;20.20;93.70;;;;;;5030476;28;20660;-90
2021/07/30 07:48:00;;;;;;;6.47;5.47;;;20.50;94.10;;;;;;5037521;28;20662;-91
2021/07/30 07:50:31;;;;;;;5.50;5.00;;;20.50;93.50;;;;;;5033251;28;20992;-92
2021/07/30 07:52:59;;;;;;;5.53;5.13;;;20.60;94.00;;;;;;5032417;28;21194;-90
2021/07/30 07:55:26;;;;;;;5.83;5.33;;;20.80;93.60;;;;;;5032977;28;20647;-90
2021/07/30 07:57:53;;;;;;;6.77;6.17;;;20.90;93.90;;;;;;5032780;28;20961;-88
2021/07/30 08:00:21;;;;;;;6.40;5.50;;;20.90;93.50;;;;;;5032540;28;21184;-90
2021/07/30 08:02:50;;;;;;;5.70;5.20;;;20.90;93.80;;;;;;5032719;28;20630;-90
2021/07/30 08:05:17;;;;;;;7.70;5.80;;;20.90;92.70;;;;;;5032079;28;20698;-90
2021/07/30 08:07:46;;;;;;;5.80;5.30;;;21.00;93.40;;;;;;5031978;28;20667;-92
2021/07/30 08:10:15;;;;;;;5.40;4.57;;;20.90;93.90;;;;;;5033728;28;20624;-90
2021/07/30 08:12:44;;;;;;;6.23;5.73;;;21.10;93.40;;;;;;5032562;28;20607;-90
2021/07/30 08:15:23;;;;;;;5.80;5.30;;;21.20;93.60;;;;;;5032903;28;20639;-91
2021/07/30 08:17:50;;;;;;;6.00;5.40;;;21.20;94.30;;;;;;5032251;28;20624;-89
2021/07/30 08:20:17;;;;;;;5.97;5.37;;;21.20;94.10;;;;;;5032585;28;20679;-90
2021/07/30 08:22:52;;;;;;;5.73;5.17;;;21.30;94.00;;;;;;5032231;28;20619;-90
2021/07/30 08:25:35;;;;;;;6.47;5.87;;;21.60;93.40;;;;;;5032317;28;20666;-91
2021/07/30 08:28:29;;;;;;;6.30;5.23;;;21.60;93.80;;;;;;5032338;28;20739;-92
2021/07/30 08:31:17;;;;;;;6.53;5.93;;;21.70;92.10;;;;;;5015222;28;20648;-91
2021/07/30 08:33:52;;;;;;;5.17;4.67;;;21.90;93.20;;;;;;5033244;28;20637;-90
2021/07/30 08:36:21;;;;;;;6.53;5.90;;;22.10;92.90;;;;;;5032839;28;21168;-90
2021/07/30 08:38:51;;;;;;;6.70;6.00;;;22.30;92.80;;;;;;5031532;28;20715;-91
2021/07/30 08:41:28;;;;;;;6.80;6.10;;;22.40;93.40;;;;;;5031817;28;20646;-89
2021/07/30 08:43:56;;;;;;;6.47;5.70;;;22.50;92.20;;;;;;5031946;28;20699;-89
2021/07/30 08:46:30;;;;;;;6.23;5.63;;;22.60;92.10;;;;;;5032260;28;20619;-91
2021/07/30 08:49:10;;;;;;;6.73;5.43;;;22.70;91.90;;;;;;5031593;28;20618;-91
2021/07/30 08:51:47;;;;;;;5.80;5.30;;;22.80;90.80;;;;;;5031396;28;20725;-90
2021/07/30 08:54:23;;;;;;;5.07;4.67;;;23.10;90.40;;;;;;5031778;28;20686;-91
2021/07/30 08:56:54;;;;;;;5.23;4.77;;;23.00;88.50;;;;;;5028341;28;20631;-89
2021/07/30 08:59:26;;;;;;;5.27;4.77;;;23.10;87.30;;;;;;5026880;28;20668;-92
2021/07/30 09:01:53;;;;;;;5.67;4.67;;;23.10;86.50;;;;;;5031139;28;21194;-89
2021/07/30 09:04:27;;;;;;;6.07;5.50;;;23.20;86.90;;;;;;5031256;28;20654;-90
2021/07/30 09:06:57;;;;;;;5.60;5.10;;;23.10;86.90;;;;;;5031230;28;21188;-90
2021/07/30 09:09:24;;;;;;;5.87;4.60;;;23.20;86.50;;;;;;5031370;28;20719;-90
2021/07/30 09:11:57;;;;;;;4.83;4.40;;;23.20;87.10;;;;;;5030819;28;20717;-90
2021/07/30 09:14:35;;;;;;;5.80;5.30;;;23.30;87.20;;;;;;5030433;28;20624;-92
2021/07/30 09:17:43;;;;;;;5.13;4.63;;;23.50;86.70;;;;;;5028753;28;20612;-92
2021/07/30 09:20:11;;;;;;;5.40;5.00;;;23.60;86.20;;;;;;5026600;28;20687;-90
2021/07/30 09:22:53;;;;;;;5.10;4.70;;;23.80;86.60;;;;;;5029914;28;21182;-92
2021/07/30 09:25:40;;;;;;;6.37;5.40;;;23.90;86.80;;;;;;5030658;28;20657;-92
2021/07/30 09:28:20;;;;;;;5.43;5.03;;;23.90;87.00;;;;;;5031818;28;20672;-92
2021/07/30 09:31:02;;;;;;;5.70;5.20;;;24.00;82.90;;;;;;5050580;28;20683;-90
2021/07/30 09:33:29;;;;;;;5.80;5.30;;;24.00;82.40;;;;;;5046282;28;20644;-91
2021/07/30 09:38:38;;;;;;;7.03;6.33;;;24.20;83.60;;;;;;5048014;28;20637;-91
2021/07/30 09:41:30;;;;;;;5.87;5.23;;;24.20;82.40;;;;;;5050622;28;20656;-91
2021/07/30 09:44:22;;;;;;;7.20;5.97;;;24.20;84.80;;;;;;5035314;28;20656;-92
2021/07/30 09:47:17;;;;;;;6.20;5.60;;;24.50;84.60;;;;;;5017694;28;20630;-90
2021/07/30 09:49:52;;;;;;;5.93;5.43;;;24.40;82.50;;;;;;5012456;28;20618;-91
2021/07/30 09:52:21;;;;;;;6.40;5.50;;;24.60;85.00;;;;;;5031225;28;20607;-90
2021/07/30 09:57:39;;;;;;;5.70;5.20;;;24.90;84.20;;;;;;5029471;28;20631;-89
2021/07/30 10:00:12;;;;;;;6.63;5.80;;;25.10;80.40;;;;;;5030046;28;20726;-90
2021/07/30 10:08:24;;;;;;;6.90;5.77;;;25.30;81.20;;;;;;5027899;28;20725;-91
2021/07/30 10:10:54;;;;;;;6.17;5.60;;;25.60;80.60;;;;;;5029333;28;20734;-90
2021/07/30 10:13:35;;;;;;;6.03;5.53;;;25.70;81.70;;;;;;5034786;28;20622;-90
2021/07/30 10:16:05;;;;;;;6.23;5.73;;;25.50;79.00;;;;;;5026111;28;20983;-90
2021/07/30 10:18:43;;;;;;;6.60;6.00;;;25.50;79.80;;;;;;5021235;28;20635;-91
2021/07/30 10:21:39;;;;;;;6.60;6.00;;;25.50;82.00;;;;;;5009680;28;20635;-89
2021/07/30 10:24:11;;;;;;;6.73;6.07;;;25.80;79.90;;;;;;5024994;28;20666;-90
2021/07/30 10:26:48;;;;;;;7.83;5.97;;;25.90;83.70;;;;;;5029891;28;20729;-91
2021/07/30 10:29:16;;;;;;;9.27;6.53;;;26.20;82.70;;;;;;5029542;28;20619;-89
2021/07/30 10:31:57;;;;;;;7.07;5.80;;;26.60;81.00;;;;;;5026902;28;20623;-89
2021/07/30 10:34:48;;;;;;;6.60;5.70;;;26.50;75.90;;;;;;5030017;28;21179;-91
2021/07/30 10:37:35;;;;;;;6.23;5.73;;;26.20;78.10;;;;;;5031169;28;20626;-89
2021/07/30 10:40:18;;;;;;;6.13;5.53;;;26.30;79.80;;;;;;5034215;28;21161;-90
2021/07/30 10:43:01;;;;;;;6.87;5.70;;;26.60;78.50;;;;;;5012911;28;20630;-90
2021/07/30 10:45:28;;;;;;;7.10;6.40;;;26.80;77.30;;;;;;5013346;28;21268;-90
2021/07/30 10:48:29;;;;;;;6.27;5.77;;;26.40;76.10;;;;;;5030198;28;20619;-91
2021/07/30 10:50:59;;;;;;;6.80;6.20;;;26.50;78.10;;;;;;5030522;28;20996;-89
2021/07/30 10:53:49;;;;;;;6.77;6.17;;;27.00;75.90;;;;;;5034180;28;20697;-90
2021/07/30 10:56:56;;;;;;;6.63;6.07;;;26.70;75.70;;;;;;5033605;28;20773;-92
2021/07/30 10:59:27;;;;;;;6.50;5.90;;;26.70;76.70;;;;;;5033816;28;20630;-91
2021/07/30 11:02:04;;;;;;;6.00;5.60;;;26.80;75.80;;;;;;5028896;28;20679;-90
2021/07/30 11:04:32;;;;;;;6.73;6.20;;;26.70;77.40;;;;;;5035650;28;20665;-90
2021/07/30 11:07:03;;;;;;;6.00;5.50;;;26.70;75.60;;;;;;5019794;28;20691;-91
2021/07/30 11:09:40;;;;;;;6.83;6.13;;;26.40;77.70;;;;;;5053098;28;20622;-89
2021/07/30 11:12:13;;;;;;;6.90;6.23;;;26.40;78.80;;;;;;5036476;28;20616;-91
2021/07/30 11:14:46;;;;;;;6.90;6.30;;;26.70;76.30;;;;;;5030722;28;20625;-91
2021/07/30 11:17:14;;;;;;;7.47;6.77;;;27.10;75.80;;;;;;5033168;28;20623;-91
2021/07/30 11:19:43;;;;;;;6.93;6.40;;;27.20;74.60;;;;;;5037429;28;20735;-91
2021/07/30 11:22:17;;;;;;;6.57;5.90;;;26.80;77.60;;;;;;5038618;28;21286;-90
2021/07/30 11:24:56;;;;;;;6.30;5.70;;;26.60;74.70;;;;;;5032952;28;20661;-93
2021/07/30 11:27:34;;;;;;;6.30;5.80;;;26.50;75.80;;;;;;5032641;28;20621;-91
2021/07/30 11:30:03;;;;;;;5.80;5.37;;;26.60;78.90;;;;;;5033406;28;20626;-92
2021/07/30 11:32:32;;;;;;;5.87;5.40;;;26.60;75.30;;;;;;5019158;28;20607;-91
2021/07/30 11:35:08;;;;;;;6.73;6.13;;;26.10;75.80;;;;;;5033092;28;20647;-88
2021/07/30 11:37:47;;;;;;;6.47;5.73;;;26.00;76.90;;;;;;5033520;28;20595;-92
2021/07/30 11:40:16;;;;;;;6.17;5.67;;;26.10;78.20;;;;;;5032540;28;20630;-91
2021/07/30 11:42:45;;;;;;;5.67;5.27;;;25.70;75.90;;;;;;5032255;28;20615;-91
2021/07/30 11:45:20;;;;;;;6.40;5.80;;;26.00;81.20;;;;;;5032839;28;20662;-91
2021/07/30 11:47:52;;;;;;;6.47;5.97;;;26.50;79.50;;;;;;5032216;28;20624;-91
2021/07/30 11:50:23;;;;;;;6.60;6.10;;;26.40;80.20;;;;;;5033361;28;21191;-90
2021/07/30 11:52:52;;;;;;;6.30;5.77;;;26.10;78.60;;;;;;5014848;28;21213;-91
2021/07/30 11:55:21;;;;;;;6.20;5.70;;;26.40;80.30;;;;;;5012663;28;20647;-92
2021/07/30 11:57:49;;;;;;;6.57;5.87;;;26.70;77.10;;;;;;5048133;28;20661;-91
2021/07/30 12:00:24;;;;;;;6.07;5.43;;;27.50;78.10;;;;;;5052564;28;21175;-92
2021/07/30 12:02:51;;;;;;;6.93;6.23;;;28.50;74.50;;;;;;5032283;28;20615;-91
2021/07/30 12:05:19;;;;;;;6.53;6.03;;;29.10;74.00;;;;;;5032400;28;20759;-92
2021/07/30 12:07:47;;;;;;;5.80;5.40;;;30.00;70.50;;;;;;5032402;28;20634;-92
2021/07/30 12:10:18;;;;;;;6.20;5.80;;;30.60;67.40;;;;;;5032591;28;20658;-91
2021/07/30 12:12:45;;;;;;;5.53;5.13;;;28.90;65.70;;;;;;5030900;28;20754;-92
2021/07/30 12:15:13;;;;;;;6.53;5.93;;;28.50;67.10;;;;;;5031984;28;20634;-93
2021/07/30 12:17:41;;;;;;;6.33;5.83;;;28.20;69.20;;;;;;5031718;28;20619;-92
2021/07/30 12:20:11;;;;;;;6.37;5.77;;;28.00;70.50;;;;;;5032245;28;20630;-92
2021/07/30 12:22:41;;;;;;;6.37;5.70;;;27.40;72.60;;;;;;5016148;28;20678;-92
2021/07/30 12:25:11;;;;;;;7.30;6.70;;;27.00;77.00;;;;;;5012357;28;20750;-92
2021/07/30 12:27:40;;;;;;;6.80;6.30;;;27.30;72.70;;;;;;5012527;28;20624;-92
2021/07/30 12:30:29;;;;;;;10.77;7.40;;;27.30;74.70;;;;;;5011804;28;20616;-92
2021/07/30 12:32:57;;;;;;;7.37;6.83;;;27.50;73.40;;;;;;5030484;28;20615;-92
2021/07/30 12:35:32;;;;;;;7.23;6.70;;;28.10;71.50;;;;;;5031675;28;20630;-93
2021/07/30 12:38:06;;;;;;;9.57;7.00;;;28.20;71.40;;;;;;5031989;28;20619;-94
2021/07/30 12:40:34;;;;;;;7.77;7.10;;;28.10;71.00;;;;;;5031641;28;20631;-91
2021/07/30 12:43:14;;;;;;;7.23;6.63;;;27.80;69.80;;;;;;5013391;28;20979;-90
2021/07/30 12:45:43;;;;;;;8.13;7.53;;;27.90;72.30;;;;;;5011770;28;20802;-93
2021/07/30 12:48:10;;;;;;;8.37;7.57;;;27.90;72.20;;;;;;5024627;28;20725;-93
2021/07/30 12:50:38;;;;;;;8.57;7.17;;;28.40;73.00;;;;;;5034256;28;20635;-92
2021/07/30 12:53:15;;;;;;;7.73;7.03;;;29.30;66.50;;;;;;5024946;28;21542;-90
2021/07/30 12:56:15;;;;;;;7.47;6.87;;;29.80;67.70;;;;;;5012615;28;20619;-91
2021/07/30 12:58:56;;;;;;;7.07;6.57;;;30.40;65.00;;;;;;4970151;28;20736;-92
2021/07/30 13:01:23;;;;;;;7.23;6.70;;;30.20;66.20;;;;;;4969019;28;21007;-92
2021/07/30 13:03:55;;;;;;;6.20;5.80;;;30.70;65.80;;;;;;5013759;28;20637;-90
2021/07/30 13:06:33;;;;;;;7.63;6.90;;;30.90;65.70;;;;;;5037751;28;20770;-92
2021/07/30 13:09:10;;;;;;;6.90;6.40;;;30.90;67.10;;;;;;5031757;28;20622;-92
2021/07/30 13:11:40;;;;;;;7.37;6.87;;;31.90;62.00;;;;;;5030436;28;20642;-94
2021/07/30 13:14:46;;;;;;;9.03;6.83;;;33.00;59.40;;;;;;5031637;28;20614;-94